createdAt,value
2022-07-29T15:29:04.448Z,2.20
2022-07-29T15:31:31.286Z,2.58
2022-07-29T15:34:00.309Z,2.22
2022-07-29T15:39:17.582Z,2.17
2022-07-29T15:41:45.270Z,2.50
2022-07-29T15:44:12.412Z,2.47
2022-07-29T15:47:00.443Z,2.10
2022-07-29T15:49:47.999Z,2.28
2022-07-29T15:52:26.173Z,2.40
2022-07-29T15:54:55.273Z,2.65
2022-07-29T15:57:24.556Z,2.08
2022-07-29T15:59:52.079Z,1.92
2022-07-29T16:02:19.115Z,2.55
2022-07-29T16:04:48.446Z,2.10
2022-07-29T16:07:15.927Z,2.17
2022-07-29T16:09:43.703Z,2.00
2022-07-29T16:12:15.122Z,1.80
2022-07-29T16:14:44.378Z,2.05
2022-07-29T16:17:14.406Z,2.00
2022-07-29T16:19:43.677Z,2.58
2022-07-29T16:22:10.773Z,1.95
2022-07-29T16:24:38.856Z,1.60
2022-07-29T16:27:05.808Z,2.33
2022-07-29T16:29:32.806Z,3.38
2022-07-29T16:31:59.655Z,2.20
2022-07-29T16:34:26.460Z,2.22
2022-07-29T16:36:53.293Z,2.20
2022-07-29T16:39:20.116Z,2.42
2022-07-29T16:41:47.052Z,2.10
2022-07-29T16:44:14.299Z,2.40
2022-07-29T16:46:44.384Z,2.55
2022-07-29T16:49:11.523Z,2.35
2022-07-29T16:51:41.814Z,2.60
2022-07-29T16:54:10.697Z,2.17
2022-07-29T16:56:37.642Z,2.47
2022-07-29T16:59:04.831Z,2.13
2022-07-29T17:01:31.833Z,2.55
2022-07-29T17:04:07.819Z,2.25
2022-07-29T17:06:36.667Z,2.40
2022-07-29T17:09:05.620Z,2.33
2022-07-29T17:11:53.020Z,2.80
2022-07-29T17:14:23.405Z,2.42
2022-07-29T17:16:51.552Z,2.33
2022-07-29T17:19:30.598Z,2.83
2022-07-29T17:22:06.430Z,2.42
2022-07-29T17:24:38.113Z,3.03
2022-07-29T17:27:05.840Z,2.78
2022-07-29T17:29:32.777Z,2.80
2022-07-29T17:32:00.053Z,2.78
2022-07-29T17:34:27.301Z,3.00
2022-07-29T17:36:54.138Z,2.70
2022-07-29T17:39:21.679Z,3.08
2022-07-29T17:41:48.777Z,3.20
2022-07-29T17:44:15.738Z,2.97
2022-07-29T17:46:42.631Z,3.33
2022-07-29T17:49:09.647Z,3.67
2022-07-29T17:51:36.610Z,3.38
2022-07-29T17:54:03.575Z,3.20
2022-07-29T17:56:30.878Z,2.95
2022-07-29T17:59:01.093Z,3.22
2022-07-29T18:01:28.822Z,3.58
2022-07-29T18:03:59.822Z,3.35
2022-07-29T18:06:27.022Z,3.38
2022-07-29T18:08:54.200Z,3.03
2022-07-29T18:11:21.565Z,3.40
2022-07-29T18:13:48.413Z,3.65
2022-07-29T18:16:15.404Z,3.95
2022-07-29T18:18:44.401Z,4.15
2022-07-29T18:21:11.419Z,3.85
2022-07-29T18:23:38.235Z,3.42
2022-07-29T18:26:05.395Z,3.92
2022-07-29T18:28:35.058Z,3.42
2022-07-29T18:31:02.523Z,3.88
2022-07-29T18:33:29.522Z,3.67
2022-07-29T18:36:07.688Z,3.40
2022-07-29T18:38:38.518Z,3.45
2022-07-29T18:41:05.364Z,3.25
2022-07-29T18:43:32.313Z,3.63
2022-07-29T18:45:59.091Z,2.80
2022-07-29T18:48:25.878Z,3.05
2022-07-29T18:50:52.703Z,3.10
2022-07-29T18:53:19.639Z,2.92
2022-07-29T18:55:46.512Z,2.65
2022-07-29T18:58:13.438Z,2.60
2022-07-29T19:00:40.447Z,3.05
2022-07-29T19:03:08.689Z,2.83
2022-07-29T19:05:35.640Z,3.05
2022-07-29T19:08:02.611Z,3.30
2022-07-29T19:10:29.793Z,2.92
2022-07-29T19:12:57.760Z,3.10
2022-07-29T19:15:24.832Z,3.00
2022-07-29T19:17:51.724Z,2.88
2022-07-29T19:20:18.603Z,3.00
2022-07-29T19:22:45.663Z,3.42
2022-07-29T19:25:12.588Z,3.03
2022-07-29T19:27:41.182Z,3.30
2022-07-29T19:30:09.477Z,3.03
2022-07-29T19:32:36.970Z,3.38
2022-07-29T19:35:23.850Z,3.92
2022-07-29T19:37:51.630Z,3.25
2022-07-29T19:40:18.648Z,3.67
2022-07-29T19:42:45.592Z,3.92
2022-07-29T19:45:12.590Z,3.75
2022-07-29T19:47:39.406Z,3.65
2022-07-29T19:50:07.018Z,3.60
2022-07-29T19:52:33.911Z,3.88
2022-07-29T19:55:06.779Z,3.40
2022-07-29T19:57:40.747Z,3.33
2022-07-29T20:00:11.310Z,3.40
2022-07-29T20:02:40.067Z,3.83
2022-07-29T20:05:08.044Z,4.30
2022-07-29T20:07:35.006Z,3.80
2022-07-29T20:10:02.139Z,3.75
2022-07-29T20:12:28.975Z,4.03
2022-07-29T20:14:55.932Z,4.20
2022-07-29T20:17:22.774Z,3.85
2022-07-29T20:19:50.771Z,3.88
2022-07-29T20:22:20.987Z,3.65
2022-07-29T20:24:48.970Z,3.83
2022-07-29T20:27:15.811Z,3.70
2022-07-29T20:29:42.657Z,4.63
2022-07-29T20:32:09.472Z,4.70
2022-07-29T20:34:36.358Z,4.15
2022-07-29T20:37:03.393Z,4.97
2022-07-29T20:39:30.484Z,4.40
2022-07-29T20:41:57.359Z,4.40
2022-07-29T20:44:24.411Z,4.22
2022-07-29T20:46:51.342Z,4.10
2022-07-29T20:49:18.200Z,4.45
2022-07-29T20:51:45.099Z,4.35
2022-07-29T20:54:12.666Z,4.57
2022-07-29T20:56:41.576Z,4.50
2022-07-29T20:59:08.990Z,4.75
2022-07-29T21:01:36.154Z,4.68
2022-07-29T21:04:03.554Z,4.55
2022-07-29T21:06:30.743Z,4.85
2022-07-29T21:08:59.580Z,4.85
2022-07-29T21:11:44.519Z,5.18
2022-07-29T21:14:27.867Z,4.82
2022-07-29T21:16:54.728Z,4.47
2022-07-29T21:19:21.526Z,5.00
2022-07-29T21:21:48.394Z,5.75
2022-07-29T21:24:15.203Z,4.75
2022-07-29T21:26:47.248Z,4.38
2022-07-29T21:29:21.363Z,4.75
2022-07-29T21:31:48.294Z,4.18
2022-07-29T21:34:15.623Z,5.50
2022-07-29T21:36:48.122Z,5.20
2022-07-29T21:39:15.628Z,5.35
2022-07-29T21:41:42.400Z,5.80
2022-07-29T21:44:09.176Z,5.70
2022-07-29T21:46:36.653Z,6.05
2022-07-29T21:49:03.721Z,6.00
2022-07-29T21:51:30.634Z,5.80
2022-07-29T21:53:57.543Z,5.03
2022-07-29T21:56:27.831Z,5.18
2022-07-29T21:58:55.175Z,4.50
2022-07-29T22:01:22.218Z,5.32
2022-07-29T22:03:49.065Z,4.97
2022-07-29T22:06:18.221Z,5.22
2022-07-29T22:08:45.885Z,5.00
2022-07-29T22:11:13.510Z,5.45
2022-07-29T22:13:40.359Z,5.43
2022-07-29T22:16:07.561Z,5.25
2022-07-29T22:18:34.396Z,5.47
2022-07-29T22:21:01.272Z,5.85
2022-07-29T22:23:28.110Z,5.38
2022-07-29T22:25:54.885Z,5.30
2022-07-29T22:28:21.700Z,5.72
2022-07-29T22:30:48.580Z,6.35
2022-07-29T22:33:17.327Z,6.40
2022-07-29T22:35:45.195Z,5.93
2022-07-29T22:38:16.460Z,6.30
2022-07-29T22:40:43.317Z,6.32
2022-07-29T22:43:10.698Z,6.32
2022-07-29T22:45:37.630Z,6.80
2022-07-29T22:48:05.008Z,6.93
2022-07-29T22:50:31.834Z,6.32
2022-07-29T22:52:58.632Z,7.13
2022-07-29T22:55:25.450Z,7.30
2022-07-29T22:57:52.473Z,7.85
2022-07-29T23:00:19.284Z,7.22
2022-07-29T23:02:47.802Z,7.28
2022-07-29T23:05:15.814Z,7.32
2022-07-29T23:07:43.015Z,6.78
2022-07-29T23:10:10.327Z,7.80
2022-07-29T23:12:37.299Z,7.68
2022-07-29T23:15:05.566Z,8.50
2022-07-29T23:17:36.169Z,8.10
2022-07-29T23:20:06.920Z,8.05
2022-07-29T23:22:34.635Z,7.95
2022-07-29T23:25:01.458Z,8.05
2022-07-29T23:27:28.327Z,7.78
2022-07-29T23:29:55.120Z,7.68
2022-07-29T23:32:21.923Z,7.88
2022-07-29T23:34:48.740Z,8.10
2022-07-29T23:37:15.564Z,7.80
2022-07-29T23:39:43.088Z,7.18
2022-07-29T23:42:09.981Z,7.32
2022-07-29T23:44:36.768Z,8.02
2022-07-29T23:47:04.091Z,8.25
2022-07-29T23:49:31.197Z,7.25
2022-07-29T23:51:58.070Z,8.20
2022-07-29T23:54:24.876Z,8.52
2022-07-29T23:56:51.664Z,7.80
2022-07-29T23:59:18.472Z,8.25
